Time;durP1;ratioP1;P1;durP2;ratioP2;P2;SDS_P1;SDS_P2;PMS_P1;PMS_P2;Temp;Humidity;BMP_temperature;BMP_pressure;BME280_temperature;BME280_humidity;BME280_pressure;Samples;Min_cycle;Max_cycle;Signal;HPM_P1;HPM_P2
2022/03/21 00:00:22;;;;;;;13.23;8.02;;;7.30;36.60;;;;;;5089906;28;34437;-75
2022/03/21 00:02:47;;;;;;;12.60;7.70;;;7.30;36.60;;;;;;5086722;28;34389;-76
2022/03/21 00:05:13;;;;;;;14.90;8.50;;;7.30;36.60;;;;;;5086441;28;34318;-76
2022/03/21 00:07:39;;;;;;;12.35;8.02;;;7.30;36.70;;;;;;5086864;28;35561;-76
2022/03/21 00:10:06;;;;;;;11.85;8.20;;;7.20;36.70;;;;;;5087369;28;34218;-76
2022/03/21 00:12:34;;;;;;;11.38;7.25;;;7.20;36.60;;;;;;5104555;27;34192;-76
2022/03/21 00:15:00;;;;;;;13.55;7.50;;;7.20;36.60;;;;;;5070966;28;34513;-76
2022/03/21 00:17:26;;;;;;;12.55;8.25;;;7.20;36.70;;;;;;5086648;28;35832;-76
2022/03/21 00:19:52;;;;;;;11.98;7.55;;;7.20;36.70;;;;;;5069767;28;34116;-76
2022/03/21 00:22:20;;;;;;;10.00;7.22;;;7.20;36.60;;;;;;5087222;28;34379;-76
2022/03/21 00:24:45;;;;;;;10.77;7.10;;;7.20;37.00;;;;;;5087410;28;34380;-76
2022/03/21 00:27:12;;;;;;;12.15;7.63;;;7.20;36.90;;;;;;5069211;28;35689;-76
2022/03/21 00:29:38;;;;;;;11.48;6.90;;;7.20;36.90;;;;;;5069918;28;34536;-75
2022/03/21 00:32:05;;;;;;;11.32;7.25;;;7.20;37.00;;;;;;5086614;28;34306;-76
2022/03/21 00:34:31;;;;;;;12.48;7.78;;;7.20;37.00;;;;;;5087090;28;34214;-75
2022/03/21 00:36:57;;;;;;;11.63;7.40;;;7.20;37.10;;;;;;5069788;28;35689;-76
2022/03/21 00:39:24;;;;;;;11.43;7.25;;;7.20;37.20;;;;;;5086966;28;34479;-76
2022/03/21 00:41:50;;;;;;;12.50;7.75;;;7.20;37.30;;;;;;5087315;28;34152;-76
2022/03/21 00:44:16;;;;;;;13.50;8.05;;;7.20;37.40;;;;;;5085766;28;34461;-76
2022/03/21 00:46:42;;;;;;;10.90;7.18;;;7.10;37.70;;;;;;5085438;28;34248;-76
2022/03/21 00:49:11;;;;;;;11.02;7.13;;;7.10;37.70;;;;;;5086145;28;34132;-76
2022/03/21 00:51:38;;;;;;;11.18;6.88;;;7.10;37.80;;;;;;5086324;28;34348;-75
2022/03/21 00:54:04;;;;;;;10.60;7.13;;;7.10;37.80;;;;;;5088009;28;34373;-76
2022/03/21 00:56:30;;;;;;;11.82;7.85;;;7.10;37.70;;;;;;5087311;28;34370;-76
2022/03/21 00:58:56;;;;;;;11.52;7.28;;;7.10;37.80;;;;;;5086043;28;34087;-75
2022/03/21 01:01:23;;;;;;;9.63;6.90;;;7.10;37.90;;;;;;5085573;28;34294;-76
2022/03/21 01:03:49;;;;;;;12.10;7.63;;;7.00;38.10;;;;;;5085952;28;34167;-75
2022/03/21 01:06:15;;;;;;;10.30;6.95;;;7.10;38.10;;;;;;5067855;28;35676;-76
2022/03/21 01:08:41;;;;;;;10.65;7.00;;;7.00;37.90;;;;;;5086219;28;34199;-76
2022/03/21 01:11:06;;;;;;;11.10;7.05;;;7.00;38.00;;;;;;5068936;28;34250;-76
2022/03/21 01:13:32;;;;;;;10.30;7.63;;;7.00;38.00;;;;;;5086101;28;34516;-76
2022/03/21 01:15:58;;;;;;;10.95;7.05;;;7.00;38.10;;;;;;5085605;28;35958;-75
2022/03/21 01:18:25;;;;;;;12.43;7.45;;;7.00;38.10;;;;;;5085736;28;34423;-76
2022/03/21 01:20:51;;;;;;;11.25;6.82;;;6.90;38.10;;;;;;5085552;28;34247;-76
2022/03/21 01:23:17;;;;;;;10.90;6.93;;;6.90;38.20;;;;;;5085575;28;34144;-76
2022/03/21 01:25:43;;;;;;;12.45;7.50;;;6.90;38.30;;;;;;5087407;28;34125;-76
2022/03/21 01:28:09;;;;;;;11.40;6.70;;;6.90;38.30;;;;;;5085913;28;34115;-75
2022/03/21 01:30:36;;;;;;;11.48;6.93;;;6.90;38.40;;;;;;5085810;28;34162;-76
2022/03/21 01:33:02;;;;;;;11.68;7.28;;;6.90;38.50;;;;;;5069021;28;34252;-76
2022/03/21 01:35:28;;;;;;;12.13;7.00;;;6.90;38.50;;;;;;5084969;28;35516;-75
2022/03/21 01:37:54;;;;;;;11.77;6.57;;;6.80;38.40;;;;;;5085554;28;34369;-75
2022/03/21 01:40:20;;;;;;;9.10;6.25;;;6.80;38.40;;;;;;5085924;28;34050;-75
2022/03/21 01:42:47;;;;;;;10.25;6.68;;;6.80;38.40;;;;;;5085751;28;34313;-76
2022/03/21 01:45:14;;;;;;;12.73;7.00;;;6.80;38.40;;;;;;5084617;28;35762;-76
2022/03/21 01:47:41;;;;;;;12.55;6.60;;;6.80;38.60;;;;;;5084789;28;34213;-76
2022/03/21 01:50:08;;;;;;;12.05;6.53;;;6.70;38.80;;;;;;5085834;28;34244;-76
2022/03/21 01:52:36;;;;;;;9.13;6.03;;;6.70;38.70;;;;;;5086475;28;34457;-76
2022/03/21 01:57:47;;;;;;;11.23;6.25;;;6.60;38.80;;;;;;5085428;28;34324;-76
2022/03/21 02:00:14;;;;;;;7.43;5.63;;;6.50;38.80;;;;;;5085390;28;34297;-76
2022/03/21 02:02:40;;;;;;;9.00;6.05;;;6.50;38.80;;;;;;5084839;28;34272;-76
2022/03/21 02:05:06;;;;;;;13.18;6.60;;;6.40;38.70;;;;;;5068071;28;35871;-76
2022/03/21 02:07:33;;;;;;;8.98;6.32;;;6.40;38.70;;;;;;5084542;28;34292;-76
2022/03/21 02:09:59;;;;;;;10.52;5.82;;;6.30;38.70;;;;;;5084745;28;34162;-76
2022/03/21 02:12:25;;;;;;;9.50;6.32;;;6.20;38.70;;;;;;5083973;28;34229;-76
2022/03/21 02:14:51;;;;;;;8.13;5.78;;;6.10;38.80;;;;;;5085544;28;34096;-76
2022/03/21 02:17:20;;;;;;;8.50;6.20;;;6.10;38.90;;;;;;5067394;28;34041;-76
2022/03/21 02:19:48;;;;;;;8.85;5.90;;;6.00;38.80;;;;;;5084983;28;34242;-76
2022/03/21 02:22:33;;;;;;;8.30;5.75;;;5.90;38.80;;;;;;5084262;28;34386;-76
2022/03/21 02:25:32;;;;;;;12.90;6.22;;;5.80;39.60;;;;;;5083823;28;35717;-76
2022/03/21 02:28:00;;;;;;;11.45;6.13;;;5.70;39.80;;;;;;5083929;28;34177;-76
2022/03/21 02:30:28;;;;;;;8.23;5.57;;;5.50;39.10;;;;;;5085055;28;34379;-76
2022/03/21 02:32:55;;;;;;;10.35;6.15;;;5.40;39.10;;;;;;5084367;28;34432;-76
2022/03/21 02:35:22;;;;;;;7.50;5.05;;;5.40;39.10;;;;;;5067029;28;36824;-76
2022/03/21 02:37:49;;;;;;;8.25;5.78;;;5.20;39.10;;;;;;5084566;28;34207;-76
2022/03/21 02:40:16;;;;;;;10.38;6.00;;;5.20;39.30;;;;;;5084885;28;34017;-76
2022/03/21 02:42:42;;;;;;;13.15;5.80;;;5.10;39.40;;;;;;5084165;28;34094;-76
2022/03/21 02:45:09;;;;;;;7.93;5.18;;;5.10;39.50;;;;;;5083854;28;35552;-76
2022/03/21 02:47:35;;;;;;;8.85;5.57;;;5.00;39.40;;;;;;5083243;28;34065;-76
2022/03/21 02:50:03;;;;;;;11.90;6.07;;;5.00;39.40;;;;;;5084568;28;34430;-75
2022/03/21 02:52:29;;;;;;;10.05;6.32;;;5.00;39.60;;;;;;5067591;28;34124;-76
2022/03/21 02:54:56;;;;;;;10.95;6.20;;;4.90;39.70;;;;;;5085600;28;34556;-76
2022/03/21 02:57:22;;;;;;;9.23;5.70;;;4.80;39.70;;;;;;5084517;28;34388;-76
2022/03/21 02:59:48;;;;;;;8.15;5.78;;;4.80;39.70;;;;;;5067008;28;34420;-76
2022/03/21 03:02:14;;;;;;;7.78;4.97;;;4.80;39.50;;;;;;5083831;28;34334;-75
2022/03/21 03:04:40;;;;;;;8.85;5.95;;;4.70;39.50;;;;;;5083346;28;35865;-76
2022/03/21 03:07:06;;;;;;;9.32;5.97;;;4.70;39.40;;;;;;5084312;28;34187;-76
2022/03/21 03:09:33;;;;;;;11.88;6.55;;;4.60;39.60;;;;;;5066861;28;34231;-76
2022/03/21 03:12:00;;;;;;;9.52;5.70;;;4.60;39.70;;;;;;5083204;28;34429;-76
2022/03/21 03:14:26;;;;;;;8.27;5.68;;;4.50;39.70;;;;;;5083357;28;35934;-76
2022/03/21 03:16:52;;;;;;;10.05;5.65;;;4.50;39.70;;;;;;5084955;28;34246;-75
2022/03/21 03:19:18;;;;;;;9.55;5.63;;;4.40;39.50;;;;;;5066239;28;34183;-75
2022/03/21 03:21:46;;;;;;;9.43;5.53;;;4.40;39.60;;;;;;5083945;28;34165;-75
2022/03/21 03:24:13;;;;;;;8.57;5.60;;;4.30;39.80;;;;;;5082754;28;35968;-75
2022/03/21 03:26:39;;;;;;;7.70;5.18;;;4.20;39.70;;;;;;5066444;28;34226;-76
2022/03/21 03:29:05;;;;;;;9.63;5.53;;;4.20;39.70;;;;;;5065917;28;34098;-75
2022/03/21 03:31:31;;;;;;;9.15;5.55;;;4.20;39.70;;;;;;5083291;28;34124;-76
2022/03/21 03:33:58;;;;;;;8.38;5.32;;;4.10;39.70;;;;;;5065629;28;36003;-75
2022/03/21 03:36:24;;;;;;;12.77;5.97;;;4.10;39.80;;;;;;5084191;28;34293;-75
2022/03/21 03:38:52;;;;;;;8.68;6.00;;;4.10;39.80;;;;;;5083923;28;34355;-75
2022/03/21 03:41:19;;;;;;;11.68;5.28;;;4.10;40.10;;;;;;5082266;28;34150;-75
2022/03/21 03:43:47;;;;;;;6.85;5.05;;;4.00;40.00;;;;;;5081470;28;35799;-76
2022/03/21 03:46:14;;;;;;;8.02;4.88;;;4.00;39.90;;;;;;5082493;28;34140;-75
2022/03/21 03:48:41;;;;;;;8.77;5.03;;;3.90;39.90;;;;;;5083782;28;34091;-75
2022/03/21 03:51:07;;;;;;;9.82;5.50;;;3.90;40.00;;;;;;5082317;28;34528;-75
2022/03/21 03:53:33;;;;;;;8.50;4.78;;;3.90;39.90;;;;;;5082781;28;34215;-75
2022/03/21 03:56:00;;;;;;;9.13;5.32;;;3.80;39.90;;;;;;5081988;28;34122;-75
2022/03/21 03:58:26;;;;;;;9.73;5.45;;;3.80;40.00;;;;;;5081816;28;34688;-75
2022/03/21 04:00:51;;;;;;;9.73;5.35;;;3.80;40.20;;;;;;5083526;28;34120;-75
2022/03/21 04:05:59;;;;;;;8.60;4.85;;;3.80;40.40;;;;;;5086354;28;34555;-75
2022/03/21 04:08:25;;;;;;;9.25;5.40;;;3.80;40.60;;;;;;5067873;28;34338;-75
2022/03/21 04:10:51;;;;;;;9.70;5.85;;;3.80;40.50;;;;;;5085642;28;33907;-75
2022/03/21 04:13:17;;;;;;;8.50;5.70;;;3.80;40.50;;;;;;5085567;28;35814;-75
2022/03/21 04:15:43;;;;;;;12.02;5.80;;;3.80;40.50;;;;;;5086483;28;34480;-76
2022/03/21 04:18:09;;;;;;;9.70;5.72;;;3.80;41.30;;;;;;5085662;28;34305;-75
2022/03/21 04:20:37;;;;;;;8.65;5.32;;;3.80;40.70;;;;;;5085495;28;34395;-75
2022/03/21 04:23:04;;;;;;;10.40;5.35;;;3.80;40.70;;;;;;5085134;28;35964;-75
2022/03/21 04:25:31;;;;;;;7.95;5.18;;;3.80;40.60;;;;;;5084924;28;34242;-75
2022/03/21 04:27:57;;;;;;;10.45;5.40;;;3.80;40.70;;;;;;5086060;28;34565;-76
2022/03/21 04:30:23;;;;;;;7.70;5.00;;;3.80;40.70;;;;;;5086495;28;34200;-76
2022/03/21 04:32:49;;;;;;;9.93;5.47;;;3.80;40.70;;;;;;5084885;28;36000;-75
2022/03/21 04:35:15;;;;;;;9.43;5.65;;;3.80;40.60;;;;;;5084808;28;34171;-75
2022/03/21 04:37:41;;;;;;;9.57;5.28;;;3.80;40.60;;;;;;5068021;28;34152;-75
2022/03/21 04:40:09;;;;;;;11.77;5.32;;;3.70;40.60;;;;;;5067995;28;34072;-75
2022/03/21 04:42:36;;;;;;;8.68;5.53;;;3.70;40.70;;;;;;5084427;28;34603;-75
2022/03/21 04:45:04;;;;;;;9.68;5.75;;;3.70;40.60;;;;;;5067743;28;34381;-75
2022/03/21 04:47:31;;;;;;;9.10;5.53;;;3.70;40.40;;;;;;5067625;28;34352;-75
2022/03/21 04:49:57;;;;;;;8.30;5.22;;;3.80;40.70;;;;;;5085134;28;34130;-75
2022/03/21 04:52:23;;;;;;;8.80;5.43;;;3.80;40.60;;;;;;5086286;28;35872;-75
2022/03/21 04:54:50;;;;;;;9.18;5.53;;;3.80;40.90;;;;;;5088754;28;34270;-75
2022/03/21 04:57:20;;;;;;;9.82;5.53;;;3.80;41.00;;;;;;5089142;28;34286;-75
2022/03/21 04:59:46;;;;;;;10.25;5.13;;;3.80;41.20;;;;;;5090086;28;34195;-75
2022/03/21 05:02:12;;;;;;;10.80;5.93;;;3.80;40.90;;;;;;5071703;28;36371;-75
2022/03/21 05:04:38;;;;;;;9.13;5.47;;;3.80;40.70;;;;;;5070814;27;34158;-75
2022/03/21 05:07:06;;;;;;;11.38;5.85;;;3.90;40.80;;;;;;5101625;27;35172;-75
2022/03/21 05:09:32;;;;;;;11.45;5.45;;;3.90;40.70;;;;;;5085520;28;34697;-75
2022/03/21 05:11:58;;;;;;;11.40;6.75;;;3.90;40.80;;;;;;5084407;28;35575;-75
2022/03/21 05:14:24;;;;;;;11.20;5.97;;;3.90;40.70;;;;;;5067483;28;34025;-75
2022/03/21 05:16:50;;;;;;;11.32;5.72;;;3.90;40.70;;;;;;5084938;28;34360;-75
2022/03/21 05:19:16;;;;;;;11.40;5.90;;;3.90;40.50;;;;;;5086151;28;34416;-75
2022/03/21 05:21:42;;;;;;;8.50;5.53;;;4.00;40.60;;;;;;5085609;28;34211;-75
2022/03/21 05:32:12;;;;;;;9.75;5.75;;;3.90;40.70;;;;;;5085642;28;34169;-75
2022/03/21 05:37:19;;;;;;;8.50;5.90;;;4.00;40.60;;;;;;5084377;28;34327;-75
2022/03/21 05:42:27;;;;;;;10.63;5.07;;;4.00;40.50;;;;;;5084610;28;34890;-75
2022/03/21 05:44:53;;;;;;;11.10;6.30;;;4.00;40.60;;;;;;5067852;28;34230;-75
2022/03/21 05:47:19;;;;;;;11.07;5.78;;;3.90;40.60;;;;;;5083708;28;34196;-75
2022/03/21 05:49:45;;;;;;;12.25;5.68;;;4.00;40.60;;;;;;5083788;28;34499;-75
2022/03/21 05:52:11;;;;;;;10.57;5.25;;;4.00;40.60;;;;;;5066042;28;35531;-75
2022/03/21 05:54:37;;;;;;;9.52;5.93;;;4.00;41.60;;;;;;5083971;28;34249;-75
2022/03/21 05:57:03;;;;;;;9.60;5.95;;;4.00;40.70;;;;;;5083811;28;34239;-76
2022/03/21 06:02:10;;;;;;;7.00;5.43;;;4.10;41.00;;;;;;5084145;28;34091;-76
2022/03/21 06:04:36;;;;;;;9.65;5.72;;;4.10;41.00;;;;;;5083167;28;34127;-75
2022/03/21 06:07:02;;;;;;;9.52;5.68;;;4.10;40.80;;;;;;5083045;28;34365;-75
2022/03/21 06:09:28;;;;;;;9.60;6.03;;;4.20;40.80;;;;;;5066349;28;34317;-75
2022/03/21 06:11:55;;;;;;;8.65;5.63;;;4.20;40.80;;;;;;5082322;28;36380;-75
2022/03/21 06:14:21;;;;;;;8.27;6.10;;;4.20;40.90;;;;;;5066257;28;34314;-75
2022/03/21 06:16:48;;;;;;;11.10;6.10;;;4.30;40.90;;;;;;5083074;28;34146;-75
2022/03/21 06:19:14;;;;;;;10.63;6.07;;;4.30;40.70;;;;;;5066304;28;34085;-75
2022/03/21 06:21:40;;;;;;;10.27;5.88;;;4.30;40.90;;;;;;5082723;28;35548;-75
2022/03/21 06:24:08;;;;;;;7.55;5.65;;;4.40;41.00;;;;;;5083351;28;34127;-75
2022/03/21 06:26:34;;;;;;;9.68;5.65;;;4.40;40.80;;;;;;5066819;28;34319;-75
2022/03/21 06:29:00;;;;;;;11.60;5.97;;;4.50;41.30;;;;;;5083030;28;34407;-75
2022/03/21 06:31:26;;;;;;;12.88;7.10;;;4.50;41.10;;;;;;5084022;28;34554;-76
2022/03/21 06:33:51;;;;;;;11.68;6.00;;;4.60;41.20;;;;;;5084332;28;34160;-76
2022/03/21 06:36:17;;;;;;;10.80;6.55;;;4.60;41.00;;;;;;5066678;28;34408;-75
2022/03/21 06:38:43;;;;;;;10.50;5.63;;;4.70;41.10;;;;;;5083629;28;34095;-76
2022/03/21 06:41:10;;;;;;;11.68;7.18;;;4.70;41.20;;;;;;5083429;28;35426;-75
2022/03/21 06:43:36;;;;;;;10.63;6.72;;;4.80;41.00;;;;;;5082937;28;34165;-76
2022/03/21 06:46:02;;;;;;;10.98;6.28;;;4.90;41.20;;;;;;5082848;28;34168;-75
2022/03/21 06:48:28;;;;;;;12.93;7.13;;;5.00;40.90;;;;;;5082853;28;34239;-76
2022/03/21 06:50:55;;;;;;;12.30;6.57;;;5.10;40.90;;;;;;5082688;28;36009;-76
2022/03/21 06:53:22;;;;;;;13.25;6.88;;;5.10;40.60;;;;;;5082074;28;34336;-76
2022/03/21 06:55:48;;;;;;;17.73;8.20;;;5.20;41.40;;;;;;5065805;28;34297;-75
2022/03/21 06:58:14;;;;;;;17.70;9.55;;;5.30;40.70;;;;;;5083082;28;34308;-74
2022/03/21 07:00:43;;;;;;;14.40;9.27;;;5.40;40.60;;;;;;5083324;28;35176;-76
2022/03/21 07:03:09;;;;;;;18.83;10.88;;;5.50;40.60;;;;;;5066497;28;34059;-75
2022/03/21 07:05:36;;;;;;;11.63;7.97;;;5.60;40.40;;;;;;5084794;28;34109;-75
2022/03/21 07:08:03;;;;;;;15.57;9.10;;;5.70;40.20;;;;;;5087102;28;34222;-76
2022/03/21 07:10:33;;;;;;;13.38;7.97;;;5.80;40.20;;;;;;5088969;28;34252;-75
2022/03/21 07:13:01;;;;;;;15.18;8.02;;;5.80;40.10;;;;;;5089356;28;34145;-75
2022/03/21 07:15:28;;;;;;;12.13;7.53;;;6.00;40.10;;;;;;5087007;28;34428;-75
2022/03/21 07:17:55;;;;;;;12.65;7.97;;;6.10;40.00;;;;;;5105447;28;34293;-76
2022/03/21 07:20:22;;;;;;;10.52;7.28;;;6.20;39.90;;;;;;5087170;28;36540;-75
2022/03/21 07:22:48;;;;;;;14.10;8.45;;;6.30;39.90;;;;;;5069859;28;34139;-76
2022/03/21 07:25:13;;;;;;;15.02;8.13;;;6.50;39.80;;;;;;5087493;28;34358;-75
2022/03/21 07:27:45;;;;;;;13.20;7.72;;;6.60;39.40;;;;;;5070468;28;34058;-76
2022/03/21 07:30:12;;;;;;;13.60;6.97;;;6.70;39.70;;;;;;5085834;28;35766;-75
2022/03/21 07:32:39;;;;;;;10.68;7.65;;;6.90;39.20;;;;;;5070294;28;34086;-76
2022/03/21 07:35:05;;;;;;;11.93;7.32;;;6.90;38.90;;;;;;5105007;28;34059;-75
2022/03/21 07:37:41;;;;;;;12.30;7.45;;;7.00;38.70;;;;;;5104272;27;34265;-76
2022/03/21 07:40:10;;;;;;;11.68;7.75;;;7.10;39.20;;;;;;5087292;28;36416;-76
2022/03/21 07:42:38;;;;;;;12.48;7.47;;;7.20;38.60;;;;;;5070276;28;34184;-76
2022/03/21 07:47:46;;;;;;;11.18;7.18;;;7.40;38.50;;;;;;5088184;27;34429;-76
2022/03/21 07:50:12;;;;;;;12.52;7.60;;;7.50;38.30;;;;;;5068785;27;35864;-76
2022/03/21 07:52:38;;;;;;;14.77;8.32;;;7.60;38.30;;;;;;5068828;28;34181;-75
2022/03/21 07:55:04;;;;;;;19.05;8.63;;;7.70;38.20;;;;;;5085716;28;34191;-76
2022/03/21 07:57:30;;;;;;;15.82;8.27;;;7.70;38.10;;;;;;5084964;28;34116;-76
2022/03/21 07:59:56;;;;;;;11.13;7.55;;;7.80;38.00;;;;;;5068453;28;35558;-76
2022/03/21 08:02:22;;;;;;;14.75;7.72;;;7.90;38.00;;;;;;5085629;28;34033;-76
2022/03/21 08:04:49;;;;;;;12.38;7.80;;;8.10;38.00;;;;;;5113617;27;33841;-76
2022/03/21 08:07:15;;;;;;;12.07;7.65;;;8.20;37.70;;;;;;5106024;27;34386;-76
2022/03/21 08:09:42;;;;;;;12.68;8.35;;;8.20;37.50;;;;;;5124741;27;34312;-76
2022/03/21 08:12:09;;;;;;;12.43;7.53;;;8.30;37.50;;;;;;5123536;27;34236;-76
2022/03/21 08:14:35;;;;;;;11.93;7.65;;;8.30;37.40;;;;;;5105300;27;34227;-76
2022/03/21 08:17:02;;;;;;;11.23;7.50;;;8.30;37.50;;;;;;5139577;27;34444;-76
2022/03/21 08:19:29;;;;;;;12.65;7.82;;;8.40;37.60;;;;;;5105841;27;35740;-75
2022/03/21 08:21:55;;;;;;;12.55;7.93;;;8.40;37.50;;;;;;5124227;27;34220;-76
2022/03/21 08:24:22;;;;;;;12.63;6.88;;;8.50;37.40;;;;;;5140008;27;34195;-76
2022/03/21 08:26:49;;;;;;;12.13;7.65;;;8.60;37.40;;;;;;5107457;27;34048;-76
2022/03/21 08:29:16;;;;;;;15.70;7.45;;;8.60;37.40;;;;;;5127507;27;35312;-76
2022/03/21 08:31:43;;;;;;;12.60;8.05;;;8.70;37.50;;;;;;5093519;27;34258;-76
2022/03/21 08:34:09;;;;;;;11.77;7.30;;;8.70;37.50;;;;;;5129531;27;34336;-76
2022/03/21 08:36:35;;;;;;;11.30;8.07;;;8.80;37.50;;;;;;5110820;27;34443;-76
2022/03/21 08:39:02;;;;;;;12.27;8.73;;;8.90;37.40;;;;;;5092439;27;35869;-76
2022/03/21 08:41:28;;;;;;;14.50;8.43;;;9.20;37.40;;;;;;5108865;27;34013;-75
2022/03/21 08:43:54;;;;;;;11.43;7.82;;;9.50;37.00;;;;;;5092397;27;34275;-76
2022/03/21 08:46:21;;;;;;;14.10;8.02;;;9.90;36.60;;;;;;5109221;27;34113;-75
2022/03/21 08:51:29;;;;;;;16.73;8.63;;;10.70;35.90;;;;;;5127054;27;34286;-76
2022/03/21 08:53:56;;;;;;;13.55;8.68;;;11.10;35.30;;;;;;5091939;27;34234;-75
2022/03/21 08:56:22;;;;;;;12.82;8.40;;;11.40;34.70;;;;;;5126925;27;34339;-75
2022/03/21 08:58:48;;;;;;;16.52;8.60;;;11.80;34.20;;;;;;5108893;27;36275;-76
2022/03/21 09:01:14;;;;;;;13.85;8.98;;;12.10;33.80;;;;;;5092017;27;34196;-76
2022/03/21 09:03:40;;;;;;;12.80;8.27;;;12.40;33.20;;;;;;5094851;27;34252;-76
2022/03/21 09:06:06;;;;;;;12.68;8.38;;;12.50;32.80;;;;;;5111784;27;34317;-76
2022/03/21 09:08:32;;;;;;;13.82;8.25;;;12.70;32.30;;;;;;5110848;27;35583;-76
2022/03/21 09:10:58;;;;;;;13.40;8.20;;;12.90;32.10;;;;;;5110514;27;34193;-76
2022/03/21 09:13:24;;;;;;;12.15;8.07;;;13.10;32.10;;;;;;5110858;27;34005;-76
2022/03/21 09:15:51;;;;;;;15.80;8.27;;;13.30;31.90;;;;;;5112061;27;34329;-76
2022/03/21 09:18:17;;;;;;;14.02;8.02;;;13.50;31.50;;;;;;5110154;27;36488;-76
2022/03/21 09:20:42;;;;;;;13.70;8.55;;;13.80;31.20;;;;;;5111262;27;34438;-76
2022/03/21 09:23:08;;;;;;;12.13;8.25;;;14.00;31.10;;;;;;5109911;27;34233;-76
2022/03/21 09:25:34;;;;;;;17.45;8.85;;;14.30;31.40;;;;;;5092857;27;34226;-76
2022/03/21 09:28:00;;;;;;;14.30;7.93;;;14.50;30.50;;;;;;5128179;27;34138;-76
2022/03/21 09:30:26;;;;;;;13.27;8.32;;;14.60;30.20;;;;;;5128029;27;34056;-76
2022/03/21 09:32:52;;;;;;;15.75;8.25;;;14.70;30.20;;;;;;5109457;27;34224;-77
2022/03/21 09:35:18;;;;;;;11.82;8.43;;;15.00;30.00;;;;;;5127949;27;34188;-76
2022/03/21 09:37:44;;;;;;;14.70;7.65;;;15.20;29.80;;;;;;5143941;27;35825;-76
2022/03/21 09:40:11;;;;;;;17.83;8.20;;;15.40;29.30;;;;;;5106446;27;34528;-76
2022/03/21 09:42:58;;;;;;;12.98;8.40;;;15.60;28.50;;;;;;5072177;28;34287;-76
2022/03/21 09:45:24;;;;;;;11.40;8.07;;;15.80;28.10;;;;;;5123549;27;34143;-77
2022/03/21 09:48:09;;;;;;;11.05;7.43;;;16.10;28.30;;;;;;5105591;27;35831;-76
2022/03/21 09:50:39;;;;;;;12.50;7.95;;;16.40;25.00;;;;;;5137807;27;34071;-76
2022/03/21 09:53:07;;;;;;;13.68;8.35;;;16.60;27.10;;;;;;5143400;27;34131;-76
2022/03/21 09:55:33;;;;;;;11.65;8.27;;;16.90;26.80;;;;;;5134082;27;34256;-76
2022/03/21 09:57:59;;;;;;;14.30;8.25;;;17.00;27.00;;;;;;5106695;28;34220;-76
2022/03/21 10:00:25;;;;;;;13.35;8.50;;;17.20;25.90;;;;;;5106897;28;34182;-76
2022/03/21 10:02:53;;;;;;;11.43;7.57;;;17.30;25.80;;;;;;5088618;28;34261;-76
2022/03/21 10:05:38;;;;;;;12.85;8.27;;;17.40;24.70;;;;;;5106003;28;34105;-76
2022/03/21 10:08:21;;;;;;;12.65;8.10;;;17.60;20.00;;;;;;5069779;28;35677;-76
2022/03/21 10:10:57;;;;;;;12.02;8.63;;;17.80;19.80;;;;;;5086904;28;34249;-76
2022/03/21 10:13:26;;;;;;;13.85;8.38;;;17.90;20.70;;;;;;5107009;27;34245;-77
2022/03/21 10:16:11;;;;;;;11.07;8.13;;;18.10;23.70;;;;;;5095980;28;34679;-77
2022/03/21 10:18:39;;;;;;;13.15;8.10;;;18.20;18.60;;;;;;5074977;28;35828;-77
2022/03/21 10:21:14;;;;;;;12.68;8.32;;;18.30;23.10;;;;;;5096855;28;34089;-77
2022/03/21 10:23:44;;;;;;;12.32;8.00;;;18.50;19.40;;;;;;5088900;28;34423;-77
2022/03/21 10:26:29;;;;;;;13.70;7.95;;;18.50;22.30;;;;;;5104021;28;34414;-77
2022/03/21 10:28:58;;;;;;;13.27;7.35;;;18.50;17.50;;;;;;5104255;28;36430;-77
2022/03/21 10:31:41;;;;;;;10.02;7.65;;;18.50;21.40;;;;;;5106382;28;34328;-77
2022/03/21 10:34:10;;;;;;;9.82;7.20;;;18.60;17.60;;;;;;5088336;28;34343;-76
2022/03/21 10:36:55;;;;;;;10.85;7.65;;;18.70;21.30;;;;;;5088119;28;34356;-76
2022/03/21 10:39:21;;;;;;;12.40;7.95;;;18.80;21.40;;;;;;5104933;28;34397;-77
2022/03/21 10:41:47;;;;;;;11.07;7.93;;;19.00;21.50;;;;;;5101328;28;34242;-77
2022/03/21 10:44:13;;;;;;;11.77;7.80;;;19.30;21.10;;;;;;5101910;28;34091;-77
2022/03/21 10:46:43;;;;;;;11.13;7.05;;;19.40;20.80;;;;;;5083520;28;34228;-76
2022/03/21 10:49:10;;;;;;;11.68;7.35;;;19.60;19.40;;;;;;5117421;27;34853;-77
2022/03/21 10:51:53;;;;;;;9.23;7.28;;;19.60;20.00;;;;;;5108311;27;34071;-76
2022/03/21 10:54:40;;;;;;;9.20;6.68;;;19.80;14.20;;;;;;5109355;27;34154;-77
2022/03/21 10:57:25;;;;;;;9.80;6.45;;;19.90;15.40;;;;;;5106833;27;34087;-77
2022/03/21 10:59:51;;;;;;;11.07;6.95;;;20.00;19.00;;;;;;5107234;27;35579;-76
2022/03/21 11:02:17;;;;;;;11.80;6.75;;;20.00;19.10;;;;;;5124116;27;34115;-76
2022/03/21 11:04:44;;;;;;;12.75;6.82;;;20.10;19.00;;;;;;5106600;27;34201;-77
2022/03/21 11:07:12;;;;;;;12.00;7.25;;;20.30;18.90;;;;;;5107066;27;34247;-76
2022/03/21 11:09:40;;;;;;;10.77;7.20;;;20.50;17.60;;;;;;5106477;27;35794;-76
2022/03/21 11:12:08;;;;;;;10.20;6.80;;;20.60;17.80;;;;;;5106133;27;34458;-77
2022/03/21 11:14:39;;;;;;;10.45;6.75;;;20.70;17.90;;;;;;5106525;27;34259;-77
2022/03/21 11:17:07;;;;;;;8.27;6.13;;;20.70;15.30;;;;;;5106984;27;34079;-76
2022/03/21 11:19:34;;;;;;;9.13;6.25;;;20.70;17.50;;;;;;5097646;27;36738;-77
2022/03/21 11:22:00;;;;;;;8.88;6.35;;;20.70;17.10;;;;;;5107271;27;34328;-77
2022/03/21 11:24:31;;;;;;;8.40;5.60;;;20.70;17.20;;;;;;5105364;27;34439;-76
2022/03/21 11:27:27;;;;;;;8.45;6.32;;;20.80;15.30;;;;;;5089367;27;34526;-77
2022/03/21 11:30:14;;;;;;;7.93;5.97;;;20.80;12.90;;;;;;5140402;27;35548;-77
2022/03/21 11:33:15;;;;;;;9.65;6.03;;;20.90;13.10;;;;;;5089220;27;34316;-77
2022/03/21 11:35:49;;;;;;;9.25;5.30;;;20.90;11.50;;;;;;5083624;28;34550;-77
2022/03/21 11:38:27;;;;;;;8.18;5.47;;;20.90;15.40;;;;;;5099699;27;34304;-77
2022/03/21 11:41:10;;;;;;;7.85;5.43;;;21.00;11.80;;;;;;5089146;27;35950;-77
2022/03/21 11:43:37;;;;;;;8.90;5.32;;;21.00;11.70;;;;;;5123601;27;34167;-77
2022/03/21 11:46:22;;;;;;;8.27;4.85;;;21.10;16.30;;;;;;5089145;27;34163;-77
2022/03/21 11:48:48;;;;;;;6.95;4.85;;;21.10;10.80;;;;;;5096426;28;34161;-77
2022/03/21 11:51:25;;;;;;;10.52;5.05;;;21.10;15.90;;;;;;5098184;28;36410;-77
2022/03/21 11:53:53;;;;;;;7.13;4.72;;;21.10;12.80;;;;;;5080613;28;34176;-77
2022/03/21 11:56:51;;;;;;;12.68;4.70;;;21.30;15.50;;;;;;5120129;27;34361;-77
2022/03/21 11:59:49;;;;;;;8.13;4.57;;;21.30;11.80;;;;;;5123856;27;34254;-77
2022/03/21 12:02:54;;;;;;;10.45;4.20;;;21.20;9.60;;;;;;5125877;27;35182;-76
2022/03/21 12:05:38;;;;;;;5.13;4.13;;;21.20;9.60;;;;;;5113394;27;34110;-77
2022/03/21 12:08:35;;;;;;;7.43;4.20;;;21.30;8.50;;;;;;5093709;27;34013;-77
2022/03/21 12:11:01;;;;;;;6.20;3.95;;;21.30;11.30;;;;;;5128778;27;34112;-77
2022/03/21 12:13:40;;;;;;;4.85;3.80;;;21.30;14.50;;;;;;5110285;27;35595;-77
2022/03/21 12:16:17;;;;;;;5.38;4.07;;;21.20;8.80;;;;;;5093914;27;34104;-77
2022/03/21 12:18:59;;;;;;;5.15;3.63;;;21.10;9.30;;;;;;5110714;27;34176;-77
2022/03/21 12:21:26;;;;;;;5.03;3.78;;;21.20;9.30;;;;;;5092889;27;34341;-77
2022/03/21 12:24:15;;;;;;;6.50;3.67;;;21.20;13.90;;;;;;5128121;27;35025;-77
2022/03/21 12:26:50;;;;;;;4.70;3.03;;;21.30;9.10;;;;;;5111375;27;34049;-77
2022/03/21 12:29:36;;;;;;;6.22;3.00;;;21.40;10.20;;;;;;5109759;27;34169;-77
2022/03/21 12:32:25;;;;;;;5.10;3.47;;;21.40;9.80;;;;;;5084056;28;33826;-77
2022/03/21 12:34:53;;;;;;;4.72;3.30;;;21.40;8.70;;;;;;5080367;27;35778;-76
2022/03/21 12:37:42;;;;;;;5.07;3.35;;;21.40;13.40;;;;;;5128241;27;34096;-77
2022/03/21 12:40:20;;;;;;;5.03;3.00;;;21.50;8.60;;;;;;5093110;27;34414;-77
2022/03/21 12:42:57;;;;;;;3.33;2.60;;;21.60;10.80;;;;;;5111005;27;34140;-77
2022/03/21 12:45:29;;;;;;;4.55;2.55;;;21.60;9.70;;;;;;5094229;27;35748;-77
2022/03/21 12:48:05;;;;;;;3.72;3.13;;;21.50;12.70;;;;;;5093127;27;34162;-77
2022/03/21 12:50:33;;;;;;;3.70;2.60;;;21.50;9.20;;;;;;5109028;27;34342;-77
2022/03/21 12:53:04;;;;;;;3.58;2.75;;;21.60;12.80;;;;;;5109710;27;34025;-77
2022/03/21 12:55:31;;;;;;;4.05;3.13;;;21.60;9.30;;;;;;5110125;27;34320;-77
2022/03/21 12:58:01;;;;;;;4.07;2.63;;;21.70;12.10;;;;;;5109942;27;34230;-77
2022/03/21 13:00:33;;;;;;;4.07;2.80;;;21.70;11.10;;;;;;5108712;27;34132;-77
2022/03/21 13:03:09;;;;;;;2.42;2.22;;;21.70;10.90;;;;;;5092999;27;34392;-78
2022/03/21 13:11:22;;;;;;;4.57;2.60;;;21.90;10.00;;;;;;5112270;27;34129;-76
2022/03/21 13:13:53;;;;;;;3.55;2.60;;;21.80;10.50;;;;;;5127743;27;34035;-76
2022/03/21 13:16:22;;;;;;;3.35;2.75;;;21.80;9.70;;;;;;5127654;27;34417;-77
2022/03/21 13:18:50;;;;;;;3.25;2.63;;;21.80;9.70;;;;;;5091992;27;34467;-76
2022/03/21 13:21:18;;;;;;;3.28;2.83;;;21.70;10.90;;;;;;5127362;27;34056;-77
2022/03/21 13:23:46;;;;;;;5.18;2.90;;;21.70;10.60;;;;;;5108833;27;34455;-77
2022/03/21 13:26:17;;;;;;;3.65;2.63;;;21.60;10.70;;;;;;5107337;27;35825;-77
2022/03/21 13:28:43;;;;;;;3.95;2.50;;;21.70;9.60;;;;;;5127368;27;34579;-76